Time;durP1;ratioP1;P1;durP2;ratioP2;P2;SDS_P1;SDS_P2;PMS_P1;PMS_P2;Temp;Humidity;BMP_temperature;BMP_pressure;BME280_temperature;BME280_humidity;BME280_pressure;Samples;Min_cycle;Max_cycle;Signal;HPM_P1;HPM_P2
2023/10/19 00:00:50;;;;;;;1.70;0.60;;;17.80;99.90;;;;;;5002089;28;20099;-13
2023/10/19 00:03:17;;;;;;;1.33;0.60;;;17.80;99.90;;;;;;4997782;28;20649;-13
2023/10/19 00:05:45;;;;;;;0.77;0.60;;;17.80;99.90;;;;;;5008015;28;20061;-14
2023/10/19 00:08:20;;;;;;;0.73;0.60;;;17.80;99.90;;;;;;4995170;28;20154;-14
2023/10/19 00:10:55;;;;;;;1.10;0.43;;;17.80;99.90;;;;;;4983117;28;20454;-14
2023/10/19 00:13:22;;;;;;;1.08;0.50;;;17.90;99.90;;;;;;5006763;28;20112;-13
2023/10/19 00:15:51;;;;;;;0.98;0.50;;;17.90;99.90;;;;;;4989789;28;20045;-14
2023/10/19 00:23:13;;;;;;;1.63;0.57;;;17.90;99.90;;;;;;4992571;28;20030;-13
2023/10/19 00:25:41;;;;;;;0.80;0.50;;;17.90;99.90;;;;;;4981318;28;20766;-13
2023/10/19 00:28:08;;;;;;;1.20;0.60;;;17.90;99.90;;;;;;5023500;28;20550;-13
2023/10/19 00:30:37;;;;;;;0.50;0.40;;;17.90;99.90;;;;;;5004052;28;20200;-13
2023/10/19 00:33:16;;;;;;;2.47;1.23;;;17.90;99.90;;;;;;5010111;28;20747;-13
2023/10/19 00:35:56;;;;;;;1.48;0.52;;;18.00;99.90;;;;;;5001636;28;20087;-13
2023/10/19 00:43:43;;;;;;;1.35;0.50;;;18.00;99.90;;;;;;5018763;28;20022;-15
2023/10/19 00:48:49;;;;;;;0.50;0.40;;;18.00;99.90;;;;;;4994186;28;20030;-15
2023/10/19 00:51:41;;;;;;;0.60;0.50;;;18.00;99.90;;;;;;5000152;28;20479;-15
2023/10/19 00:54:26;;;;;;;0.88;0.50;;;18.00;99.90;;;;;;5008053;28;20028;-16
2023/10/19 00:56:55;;;;;;;0.65;0.50;;;18.00;99.90;;;;;;4982476;28;20622;-16
2023/10/19 01:01:54;;;;;;;0.82;0.40;;;18.10;99.90;;;;;;4987336;28;20064;-16
2023/10/19 01:04:23;;;;;;;1.70;0.50;;;18.10;99.90;;;;;;5013702;28;20034;-14
2023/10/19 01:07:05;;;;;;;1.17;0.60;;;18.10;99.90;;;;;;5002607;28;20708;-15
2023/10/19 01:09:35;;;;;;;0.85;0.57;;;18.00;99.90;;;;;;4993244;28;20406;-16
2023/10/19 01:15:18;;;;;;;0.90;0.50;;;18.10;99.90;;;;;;5016284;28;20471;-15
2023/10/19 01:17:57;;;;;;;0.45;0.45;;;18.10;99.90;;;;;;4991336;28;20776;-15
2023/10/19 01:28:58;;;;;;;2.42;0.93;;;18.10;99.90;;;;;;4981243;28;20026;-15
2023/10/19 01:34:00;;;;;;;1.17;0.70;;;18.10;99.90;;;;;;5016563;28;20809;-15
2023/10/19 01:36:27;;;;;;;1.00;0.60;;;18.10;99.90;;;;;;4995511;28;20033;-15
2023/10/19 01:39:00;;;;;;;2.47;0.80;;;18.10;99.90;;;;;;4993495;28;20454;-15
2023/10/19 01:41:27;;;;;;;1.48;0.63;;;18.10;99.90;;;;;;5006238;28;20453;-15
2023/10/19 01:43:54;;;;;;;2.17;1.00;;;18.10;99.90;;;;;;4985336;28;20068;-15
2023/10/19 01:46:21;;;;;;;2.70;1.00;;;18.10;99.90;;;;;;5010835;28;20033;-16
2023/10/19 01:48:53;;;;;;;1.48;0.70;;;18.10;99.90;;;;;;4990642;28;20033;-15
2023/10/19 01:51:20;;;;;;;2.50;0.90;;;18.10;99.90;;;;;;5000082;28;20041;-15
2023/10/19 01:53:47;;;;;;;2.47;1.00;;;18.10;99.90;;;;;;5006284;28;20113;-15
2023/10/19 01:56:14;;;;;;;1.77;0.82;;;18.10;99.90;;;;;;4999593;28;20029;-15
2023/10/19 01:58:41;;;;;;;1.83;0.75;;;18.10;99.90;;;;;;4990703;28;20484;-14
2023/10/19 02:01:13;;;;;;;1.75;0.90;;;18.10;99.90;;;;;;5007307;28;20190;-15
2023/10/19 02:03:43;;;;;;;2.63;1.00;;;18.10;99.90;;;;;;4990180;28;20101;-15
2023/10/19 02:06:16;;;;;;;1.27;0.70;;;18.10;99.90;;;;;;5006567;28;20379;-16
2023/10/19 02:08:48;;;;;;;1.42;0.88;;;18.10;99.90;;;;;;4994849;28;20052;-14
2023/10/19 02:11:17;;;;;;;1.83;1.15;;;18.10;99.90;;;;;;4999148;28;20044;-15
2023/10/19 02:13:49;;;;;;;1.50;0.88;;;18.10;99.90;;;;;;4993300;28;20112;-15
2023/10/19 02:16:16;;;;;;;2.30;1.00;;;18.10;99.90;;;;;;4980898;28;20513;-15
2023/10/19 02:18:45;;;;;;;2.30;1.10;;;18.10;99.90;;;;;;4989317;28;20028;-14
2023/10/19 02:21:14;;;;;;;2.85;1.00;;;18.10;99.90;;;;;;5008432;28;20577;-14
2023/10/19 02:23:41;;;;;;;2.55;0.90;;;18.10;99.90;;;;;;4999481;28;20025;-15
2023/10/19 02:26:08;;;;;;;2.15;0.93;;;18.10;99.90;;;;;;4997655;28;20125;-15
2023/10/19 02:28:39;;;;;;;1.73;0.80;;;18.10;99.90;;;;;;5006204;28;20272;-14
2023/10/19 02:31:16;;;;;;;2.58;0.90;;;18.10;99.90;;;;;;5000533;28;20152;-15
2023/10/19 02:33:45;;;;;;;2.25;0.90;;;18.10;99.90;;;;;;5006671;28;20415;-14
2023/10/19 02:36:16;;;;;;;1.75;0.90;;;18.10;99.90;;;;;;5005651;28;20124;-15
2023/10/19 02:38:48;;;;;;;1.88;0.70;;;18.10;99.90;;;;;;4994788;28;20048;-14
2023/10/19 02:41:17;;;;;;;2.90;0.83;;;18.10;99.90;;;;;;4994762;28;20022;-15
2023/10/19 02:43:47;;;;;;;1.80;0.68;;;18.10;99.90;;;;;;5003398;28;20029;-14
2023/10/19 02:46:13;;;;;;;1.80;0.80;;;18.00;99.90;;;;;;4985504;28;21282;-15
2023/10/19 02:48:47;;;;;;;1.70;0.70;;;18.00;99.90;;;;;;5007231;28;20068;-15
2023/10/19 02:51:13;;;;;;;0.82;0.70;;;18.00;99.90;;;;;;4991057;28;20401;-15
2023/10/19 02:53:42;;;;;;;1.13;0.60;;;18.00;99.90;;;;;;5000322;28;20034;-14
2023/10/19 02:56:19;;;;;;;1.48;0.60;;;18.00;99.90;;;;;;5003445;28;20398;-15
2023/10/19 02:58:49;;;;;;;2.10;0.82;;;17.90;99.90;;;;;;5012243;28;20030;-15
2023/10/19 03:01:29;;;;;;;0.90;0.57;;;18.00;99.90;;;;;;5007832;28;20498;-15
2023/10/19 03:03:59;;;;;;;1.25;0.60;;;17.90;99.90;;;;;;4987346;28;20026;-15
2023/10/19 03:06:31;;;;;;;1.00;0.50;;;17.90;99.90;;;;;;4994426;28;20136;-15
2023/10/19 03:09:04;;;;;;;0.95;0.60;;;17.80;99.90;;;;;;5000196;28;20597;-15
2023/10/19 03:11:32;;;;;;;1.02;0.60;;;17.80;99.90;;;;;;4992057;28;20531;-14
2023/10/19 03:13:58;;;;;;;1.77;0.60;;;17.80;99.90;;;;;;4997792;28;20029;-15
2023/10/19 03:16:24;;;;;;;1.27;0.70;;;17.70;99.90;;;;;;5007096;28;20037;-14
2023/10/19 03:18:50;;;;;;;0.90;0.53;;;17.70;99.90;;;;;;4981900;28;21028;-15
2023/10/19 03:21:26;;;;;;;1.25;0.50;;;17.70;99.90;;;;;;4994226;28;20495;-15
2023/10/19 03:23:53;;;;;;;1.73;0.70;;;17.70;99.90;;;;;;4997125;28;20250;-15
2023/10/19 03:26:43;;;;;;;1.80;0.70;;;17.60;99.90;;;;;;5009529;28;20064;-16
2023/10/19 03:29:09;;;;;;;3.17;0.63;;;17.60;99.90;;;;;;5002418;28;20233;-16
2023/10/19 03:31:43;;;;;;;1.55;0.68;;;17.50;99.90;;;;;;5021262;28;20018;-14
2023/10/19 03:34:18;;;;;;;3.08;0.70;;;17.50;99.90;;;;;;4982132;28;20044;-15
2023/10/19 03:36:44;;;;;;;2.13;0.70;;;17.50;99.90;;;;;;4986538;28;20030;-14
2023/10/19 03:39:17;;;;;;;2.22;0.80;;;17.50;99.90;;;;;;5008249;28;20037;-15
2023/10/19 03:41:44;;;;;;;3.83;0.80;;;17.60;99.90;;;;;;4983157;28;20117;-15
2023/10/19 03:44:20;;;;;;;1.27;0.65;;;17.50;99.90;;;;;;5010010;28;20018;-15
2023/10/19 03:46:57;;;;;;;2.10;0.73;;;17.60;99.90;;;;;;5000965;28;20855;-15
2023/10/19 03:49:33;;;;;;;1.20;0.80;;;17.60;99.90;;;;;;4983073;28;20092;-15
2023/10/19 03:51:59;;;;;;;1.05;0.60;;;17.60;99.90;;;;;;4988323;28;20134;-15
2023/10/19 03:54:28;;;;;;;2.67;1.00;;;17.60;99.90;;;;;;5000877;28;20037;-13
2023/10/19 03:56:57;;;;;;;0.80;0.60;;;17.60;99.90;;;;;;4994259;28;20033;-13
2023/10/19 03:59:24;;;;;;;1.98;0.70;;;17.60;99.90;;;;;;4997935;28;20025;-13
2023/10/19 04:01:50;;;;;;;2.58;0.80;;;17.60;99.90;;;;;;5004098;28;20133;-14
2023/10/19 04:04:16;;;;;;;2.50;0.70;;;17.70;99.90;;;;;;4983207;28;20883;-13
2023/10/19 04:06:49;;;;;;;2.67;0.75;;;17.70;99.90;;;;;;5006896;28;20026;-14
2023/10/19 04:09:18;;;;;;;2.13;0.80;;;17.70;99.90;;;;;;5002020;28;20068;-13
2023/10/19 04:11:51;;;;;;;1.70;0.65;;;17.70;99.90;;;;;;4998266;28;20033;-14
2023/10/19 04:14:17;;;;;;;1.47;0.70;;;17.70;99.90;;;;;;4999243;28;20030;-15
2023/10/19 04:16:44;;;;;;;2.63;0.90;;;17.70;99.90;;;;;;4993432;28;20097;-15
2023/10/19 04:19:14;;;;;;;2.55;0.80;;;17.70;99.90;;;;;;5007134;28;20475;-15
2023/10/19 04:21:43;;;;;;;1.45;0.65;;;17.70;99.90;;;;;;4967746;28;20026;-15
2023/10/19 04:24:10;;;;;;;1.65;0.80;;;17.70;99.90;;;;;;5004567;28;20018;-15
2023/10/19 04:26:37;;;;;;;3.13;1.20;;;17.70;99.90;;;;;;4996849;28;20105;-16
2023/10/19 04:29:19;;;;;;;1.70;0.80;;;17.80;99.90;;;;;;4984224;28;20166;-16
2023/10/19 04:31:54;;;;;;;2.50;0.68;;;17.70;99.90;;;;;;5002816;28;20025;-15
2023/10/19 04:34:21;;;;;;;2.70;0.70;;;17.70;99.90;;;;;;4992486;28;20585;-15
2023/10/19 04:36:48;;;;;;;2.75;0.80;;;17.70;99.90;;;;;;4963230;28;20049;-15
2023/10/19 04:39:13;;;;;;;1.20;0.80;;;17.70;99.90;;;;;;5009043;28;20565;-15
2023/10/19 04:41:44;;;;;;;2.65;0.80;;;17.70;99.90;;;;;;4997520;28;20120;-15
2023/10/19 04:44:10;;;;;;;1.25;0.60;;;17.50;99.90;;;;;;4984650;28;20026;-16
2023/10/19 04:46:36;;;;;;;1.70;0.60;;;17.70;99.90;;;;;;5006685;28;20018;-15
2023/10/19 04:49:03;;;;;;;1.50;0.60;;;17.70;99.90;;;;;;5007256;28;20068;-16
2023/10/19 04:51:29;;;;;;;1.92;0.70;;;17.70;99.90;;;;;;4984809;28;20021;-15
2023/10/19 04:53:55;;;;;;;1.48;0.68;;;17.70;99.90;;;;;;4987055;28;20523;-15
2023/10/19 04:56:22;;;;;;;1.92;0.60;;;17.70;99.90;;;;;;5016249;28;20108;-15
2023/10/19 04:58:48;;;;;;;2.15;0.60;;;17.70;99.90;;;;;;4981486;28;20262;-16
2023/10/19 05:01:14;;;;;;;2.10;0.80;;;17.70;99.90;;;;;;4979039;28;23038;-15
2023/10/19 05:03:41;;;;;;;1.85;0.70;;;17.70;99.90;;;;;;5002183;28;20454;-14
2023/10/19 05:06:07;;;;;;;1.67;0.90;;;17.70;99.90;;;;;;4980045;28;20513;-14
2023/10/19 05:08:33;;;;;;;0.93;0.70;;;17.70;99.90;;;;;;4972508;28;20029;-13
2023/10/19 05:11:01;;;;;;;1.70;0.63;;;17.70;99.90;;;;;;4997350;28;20199;-14
2023/10/19 05:13:27;;;;;;;1.95;0.70;;;17.70;99.90;;;;;;4994853;28;20225;-14
2023/10/19 05:15:58;;;;;;;1.33;0.60;;;17.70;99.90;;;;;;4995534;28;20617;-14
2023/10/19 05:18:25;;;;;;;1.70;0.80;;;17.70;99.90;;;;;;5003818;28;20037;-13
2023/10/19 05:20:55;;;;;;;0.60;0.60;;;17.70;99.90;;;;;;5010966;28;20025;-13
2023/10/19 05:23:23;;;;;;;1.23;0.73;;;17.70;99.90;;;;;;4963824;28;20030;-15
2023/10/19 05:25:52;;;;;;;2.72;0.80;;;17.70;99.90;;;;;;4984029;28;21488;-16
2023/10/19 05:28:18;;;;;;;1.02;0.65;;;17.70;99.90;;;;;;5009520;28;20654;-15
2023/10/19 05:30:44;;;;;;;1.65;0.80;;;17.70;99.90;;;;;;4973993;28;20347;-15
2023/10/19 05:33:10;;;;;;;2.23;0.60;;;17.70;99.90;;;;;;4993142;28;20335;-15
2023/10/19 05:35:40;;;;;;;1.80;0.68;;;17.70;99.90;;;;;;5006113;28;20538;-15
2023/10/19 05:38:09;;;;;;;2.45;0.90;;;17.60;99.90;;;;;;4977144;28;20033;-16
2023/10/19 05:40:35;;;;;;;1.52;0.65;;;17.60;99.90;;;;;;4990055;28;20033;-16
2023/10/19 05:43:02;;;;;;;3.40;0.60;;;17.60;99.90;;;;;;5001564;28;20034;-17
2023/10/19 05:45:29;;;;;;;2.63;0.60;;;17.60;99.90;;;;;;4993888;28;20055;-15
2023/10/19 05:47:58;;;;;;;2.53;0.75;;;17.60;99.90;;;;;;4998161;28;20065;-16
2023/10/19 05:50:24;;;;;;;2.17;0.73;;;17.60;99.90;;;;;;5008415;28;20033;-16
2023/10/19 05:52:51;;;;;;;1.80;0.77;;;17.60;99.90;;;;;;4985488;28;20948;-15
2023/10/19 05:55:18;;;;;;;1.63;0.80;;;17.60;99.90;;;;;;4972308;28;20034;-15
2023/10/19 05:57:44;;;;;;;1.63;0.60;;;17.60;99.90;;;;;;5002868;28;20159;-15
2023/10/19 06:00:15;;;;;;;2.25;0.70;;;17.60;99.90;;;;;;4957434;28;20033;-16
2023/10/19 06:02:51;;;;;;;2.42;0.80;;;17.60;99.90;;;;;;4997116;28;20076;-16
2023/10/19 06:05:18;;;;;;;2.78;0.80;;;17.60;99.90;;;;;;5008651;28;20784;-16
2023/10/19 06:07:45;;;;;;;0.77;0.60;;;17.60;99.90;;;;;;4983094;28;20025;-16
2023/10/19 06:10:22;;;;;;;2.20;0.67;;;17.60;99.90;;;;;;4976964;28;20291;-16
2023/10/19 06:12:51;;;;;;;0.73;0.50;;;17.60;99.90;;;;;;5010980;28;20029;-15
2023/10/19 06:15:20;;;;;;;2.70;1.13;;;17.60;99.90;;;;;;4985885;28;20315;-15
2023/10/19 06:17:47;;;;;;;0.80;0.63;;;17.50;99.90;;;;;;4997276;28;20475;-16
2023/10/19 06:20:19;;;;;;;1.70;0.60;;;17.60;99.90;;;;;;4994159;28;20850;-15
2023/10/19 06:22:50;;;;;;;0.97;0.60;;;17.60;99.90;;;;;;4998595;28;20390;-15
2023/10/19 06:25:21;;;;;;;1.45;0.60;;;17.60;99.90;;;;;;4984608;28;20030;-15
2023/10/19 06:27:47;;;;;;;0.60;0.50;;;17.60;99.90;;;;;;4995287;28;20302;-16
2023/10/19 06:30:18;;;;;;;1.23;0.70;;;17.60;99.90;;;;;;4998435;28;20034;-15
2023/10/19 06:33:00;;;;;;;1.95;0.70;;;17.60;99.90;;;;;;4996478;28;20037;-15
2023/10/19 06:35:27;;;;;;;1.50;0.60;;;17.60;99.90;;;;;;4996384;28;20056;-14
2023/10/19 06:37:57;;;;;;;1.50;0.60;;;17.60;99.90;;;;;;5016766;28;20041;-14
2023/10/19 06:40:26;;;;;;;2.17;0.82;;;17.60;99.90;;;;;;4974367;28;20480;-14
2023/10/19 06:42:55;;;;;;;1.85;0.63;;;17.70;99.90;;;;;;4992029;28;20333;-14
2023/10/19 06:45:21;;;;;;;1.15;0.60;;;17.70;99.90;;;;;;5017708;28;20026;-13
2023/10/19 06:47:49;;;;;;;2.93;1.13;;;17.70;99.90;;;;;;5013891;28;20030;-14
2023/10/19 06:50:21;;;;;;;1.85;0.77;;;17.60;99.90;;;;;;4998334;28;20120;-14
2023/10/19 06:52:47;;;;;;;1.48;0.60;;;17.60;99.90;;;;;;5001573;28;20236;-14
2023/10/19 06:55:16;;;;;;;3.53;1.00;;;17.60;99.90;;;;;;4982325;28;20064;-13
2023/10/19 06:57:47;;;;;;;2.57;0.70;;;17.60;99.90;;;;;;4992294;28;20045;-14
2023/10/19 07:00:15;;;;;;;2.08;0.60;;;17.60;99.90;;;;;;5004609;28;20041;-14
2023/10/19 07:02:45;;;;;;;2.47;0.70;;;17.60;99.90;;;;;;5003442;28;20707;-14
2023/10/19 07:05:13;;;;;;;1.25;0.70;;;17.60;99.90;;;;;;5003670;28;20065;-13
2023/10/19 07:07:42;;;;;;;1.08;0.70;;;17.60;99.90;;;;;;5005787;28;20360;-14
2023/10/19 07:10:11;;;;;;;2.07;0.90;;;17.60;99.90;;;;;;4972705;28;20105;-14
2023/10/19 07:12:39;;;;;;;1.13;0.70;;;17.60;99.90;;;;;;4977665;28;20546;-14
2023/10/19 07:15:09;;;;;;;1.60;0.73;;;17.60;99.90;;;;;;5009471;28;20491;-14
2023/10/19 07:17:37;;;;;;;1.95;0.70;;;17.60;99.90;;;;;;5009007;28;20029;-14
2023/10/19 07:20:05;;;;;;;1.63;0.80;;;17.70;99.90;;;;;;5011591;28;20685;-14
2023/10/19 07:22:32;;;;;;;2.83;0.67;;;17.70;99.90;;;;;;5004694;28;20044;-14
2023/10/19 07:24:58;;;;;;;3.00;1.08;;;17.80;99.90;;;;;;5019766;28;20507;-14
2023/10/19 07:27:27;;;;;;;1.50;0.70;;;17.90;99.90;;;;;;4985709;28;20033;-14
2023/10/19 07:29:53;;;;;;;3.22;0.75;;;18.00;99.90;;;;;;4995388;28;20021;-14
2023/10/19 07:32:18;;;;;;;4.07;0.83;;;18.30;99.90;;;;;;5006874;28;20475;-14
2023/10/19 07:34:44;;;;;;;1.55;0.70;;;18.60;99.90;;;;;;5017625;28;20042;-15
2023/10/19 07:37:15;;;;;;;0.67;0.60;;;19.00;99.90;;;;;;5001179;28;20099;-15
2023/10/19 07:39:52;;;;;;;1.25;0.60;;;19.30;99.90;;;;;;5006238;28;20547;-15
2023/10/19 07:42:18;;;;;;;2.67;0.70;;;19.70;99.90;;;;;;4987554;28;20029;-16
2023/10/19 07:44:44;;;;;;;2.20;0.73;;;20.00;99.90;;;;;;4988888;28;20404;-16
2023/10/19 07:47:12;;;;;;;3.65;0.80;;;20.30;99.90;;;;;;5006699;28;20596;-16
2023/10/19 07:49:41;;;;;;;2.25;0.70;;;20.50;99.90;;;;;;5004010;28;20025;-16
2023/10/19 07:52:07;;;;;;;2.00;0.60;;;20.70;99.90;;;;;;5002978;28;20025;-17
2023/10/19 07:54:37;;;;;;;2.50;0.80;;;20.70;99.90;;;;;;5006189;28;20523;-16
2023/10/19 07:57:07;;;;;;;3.08;0.80;;;20.60;99.90;;;;;;4984924;28;20034;-16
2023/10/19 07:59:33;;;;;;;1.70;0.80;;;20.60;99.90;;;;;;4998439;28;20111;-16
2023/10/19 08:02:02;;;;;;;2.30;0.75;;;20.40;99.90;;;;;;4999507;28;20526;-16
2023/10/19 08:04:29;;;;;;;2.03;0.90;;;20.30;99.90;;;;;;5004029;28;20050;-16
2023/10/19 08:06:55;;;;;;;2.90;0.80;;;20.20;99.90;;;;;;5016536;28;20131;-16
2023/10/19 08:09:26;;;;;;;1.50;0.70;;;20.00;99.90;;;;;;5007682;28;20509;-17
2023/10/19 08:11:55;;;;;;;1.73;0.82;;;20.00;99.90;;;;;;4995923;28;20418;-16
2023/10/19 08:14:27;;;;;;;3.70;1.10;;;19.80;99.90;;;;;;5009002;28;20079;-16
2023/10/19 08:16:56;;;;;;;3.03;0.93;;;19.80;99.90;;;;;;4972209;28;20060;-16
2023/10/19 08:19:22;;;;;;;2.15;0.82;;;19.70;99.90;;;;;;5006662;28;20391;-16
2023/10/19 08:21:48;;;;;;;2.10;0.90;;;19.60;99.90;;;;;;4991344;28;20026;-16
2023/10/19 08:24:17;;;;;;;2.22;0.90;;;19.70;99.90;;;;;;4999676;28;20026;-16
2023/10/19 08:26:45;;;;;;;1.47;0.70;;;19.60;99.90;;;;;;4988189;28;20025;-16
2023/10/19 08:29:13;;;;;;;3.90;0.95;;;19.60;99.90;;;;;;5002414;28;20032;-16
2023/10/19 08:31:44;;;;;;;3.35;0.90;;;19.60;99.90;;;;;;4990330;28;20100;-16
2023/10/19 08:34:11;;;;;;;3.45;0.98;;;19.60;99.90;;;;;;5006936;28;20445;-17
2023/10/19 08:36:38;;;;;;;3.53;0.80;;;19.70;99.90;;;;;;5003585;28;20033;-16
2023/10/19 08:39:08;;;;;;;2.13;0.70;;;19.70;99.90;;;;;;4991721;28;20231;-16
2023/10/19 08:41:39;;;;;;;1.90;0.90;;;19.70;99.90;;;;;;5000858;28;20034;-16
2023/10/19 08:44:11;;;;;;;3.63;1.00;;;19.70;99.90;;;;;;4992487;28;20747;-16
2023/10/19 08:46:45;;;;;;;1.35;0.82;;;19.80;99.90;;;;;;4988512;28;20037;-16
2023/10/19 08:49:15;;;;;;;2.80;0.80;;;19.80;99.90;;;;;;5003279;28;20109;-16
2023/10/19 08:51:46;;;;;;;3.47;1.10;;;19.90;99.90;;;;;;4999384;28;20069;-16
2023/10/19 08:54:13;;;;;;;4.68;0.98;;;20.10;99.90;;;;;;5004983;28;20038;-15
2023/10/19 08:56:41;;;;;;;2.88;0.90;;;20.20;99.90;;;;;;5020838;28;20034;-16
2023/10/19 08:59:15;;;;;;;2.75;1.05;;;20.40;99.90;;;;;;4985221;28;20232;-16
2023/10/19 09:01:44;;;;;;;1.90;0.85;;;20.70;99.90;;;;;;4991286;28;20034;-16
2023/10/19 09:04:14;;;;;;;2.50;0.90;;;20.90;99.90;;;;;;5025874;28;20107;-16
2023/10/19 09:06:42;;;;;;;2.67;0.80;;;21.20;99.90;;;;;;4999522;28;20064;-16
2023/10/19 09:09:13;;;;;;;1.75;1.00;;;21.20;99.90;;;;;;5004788;28;20379;-15
2023/10/19 09:11:39;;;;;;;2.97;0.80;;;21.20;99.90;;;;;;5007911;28;20018;-16
2023/10/19 09:14:06;;;;;;;1.30;0.80;;;21.30;99.90;;;;;;4988175;28;20727;-15
2023/10/19 09:16:32;;;;;;;2.47;0.80;;;21.10;99.90;;;;;;5007307;28;20041;-17
2023/10/19 09:18:58;;;;;;;3.88;0.93;;;21.10;99.90;;;;;;4995677;28;20233;-15
2023/10/19 09:21:28;;;;;;;2.75;0.80;;;21.00;99.90;;;;;;5013040;28;20030;-16
2023/10/19 09:23:55;;;;;;;3.35;0.85;;;20.90;99.90;;;;;;4988657;28;20029;-15
2023/10/19 09:26:22;;;;;;;3.13;0.87;;;20.90;99.90;;;;;;5011608;28;20026;-15
2023/10/19 09:28:50;;;;;;;2.15;0.70;;;20.80;99.90;;;;;;5006034;28;20881;-17
2023/10/19 09:31:21;;;;;;;2.28;0.70;;;20.80;99.90;;;;;;4986984;28;20612;-16
2023/10/19 09:33:48;;;;;;;2.53;1.00;;;20.70;99.90;;;;;;5006742;28;20029;-17
2023/10/19 09:36:15;;;;;;;2.80;0.90;;;20.70;99.90;;;;;;5010058;28;20025;-16
2023/10/19 09:38:48;;;;;;;2.87;0.90;;;20.60;99.90;;;;;;4992622;28;20527;-17
2023/10/19 09:41:17;;;;;;;4.68;0.90;;;20.60;99.90;;;;;;5012639;28;20050;-15
2023/10/19 09:43:48;;;;;;;2.13;0.85;;;20.60;99.90;;;;;;5010177;28;20438;-16
2023/10/19 09:46:28;;;;;;;2.42;0.95;;;20.50;99.90;;;;;;4988571;28;20061;-15
2023/10/19 09:48:55;;;;;;;2.33;0.80;;;20.50;99.90;;;;;;4984445;28;20710;-16
2023/10/19 09:51:22;;;;;;;1.73;0.80;;;20.50;99.90;;;;;;5025519;28;20033;-16
2023/10/19 09:54:04;;;;;;;2.28;0.80;;;20.40;99.90;;;;;;4997963;28;20598;-17
2023/10/19 09:56:36;;;;;;;2.85;0.93;;;20.40;99.90;;;;;;5026552;28;20501;-16
2023/10/19 09:59:07;;;;;;;1.95;0.80;;;20.40;99.90;;;;;;5009828;28;20231;-16
2023/10/19 10:02:08;;;;;;;1.75;0.80;;;20.40;99.90;;;;;;4979566;28;20045;-16
2023/10/19 10:04:35;;;;;;;2.33;0.70;;;20.50;99.90;;;;;;4993638;28;20038;-16
2023/10/19 10:07:01;;;;;;;3.15;0.77;;;20.40;99.90;;;;;;5010083;28;20346;-16
2023/10/19 10:09:27;;;;;;;1.58;0.90;;;20.40;99.90;;;;;;5008417;28;20037;-16
2023/10/19 10:11:53;;;;;;;2.07;0.80;;;20.40;99.90;;;;;;4995616;28;20523;-17
2023/10/19 10:14:29;;;;;;;2.53;0.85;;;20.40;99.90;;;;;;5011002;28;20061;-16
2023/10/19 10:17:01;;;;;;;1.92;0.80;;;20.50;99.90;;;;;;4984436;28;20381;-16
2023/10/19 10:19:27;;;;;;;3.95;1.00;;;20.40;99.90;;;;;;4978803;28;20442;-16
2023/10/19 10:22:11;;;;;;;2.43;0.83;;;20.40;99.90;;;;;;5007035;28;20025;-16
2023/10/19 10:24:41;;;;;;;3.42;1.10;;;20.40;99.90;;;;;;5010077;28;20045;-17
2023/10/19 10:27:07;;;;;;;2.80;1.00;;;20.40;99.90;;;;;;5013782;28;20423;-16
2023/10/19 10:29:32;;;;;;;2.22;0.90;;;20.50;99.90;;;;;;5012068;28;20034;-17
2023/10/19 10:31:59;;;;;;;3.03;1.00;;;20.40;99.90;;;;;;4982118;28;20807;-16
2023/10/19 10:34:36;;;;;;;3.38;0.93;;;20.40;99.90;;;;;;4992521;28;20606;-16
2023/10/19 10:37:05;;;;;;;2.70;1.20;;;20.50;99.90;;;;;;5007157;28;20052;-16
2023/10/19 10:39:31;;;;;;;2.17;0.90;;;20.50;99.90;;;;;;5007737;28;20610;-17
2023/10/19 10:42:05;;;;;;;3.20;1.00;;;20.50;99.90;;;;;;4995289;28;20034;-16
2023/10/19 10:44:41;;;;;;;2.70;1.23;;;20.50;99.90;;;;;;5010927;28;20037;-17
2023/10/19 10:47:29;;;;;;;2.90;0.93;;;20.50;99.90;;;;;;5008775;28;20021;-16
2023/10/19 10:49:59;;;;;;;1.70;0.98;;;20.50;99.90;;;;;;4967876;28;20059;-16
2023/10/19 10:52:26;;;;;;;1.80;0.80;;;20.60;99.90;;;;;;5009385;28;20033;-16
2023/10/19 10:54:52;;;;;;;3.63;1.03;;;20.70;99.90;;;;;;5007574;28;20033;-16
2023/10/19 10:57:20;;;;;;;2.72;1.00;;;20.80;99.90;;;;;;4999204;28;20087;-16
2023/10/19 10:59:46;;;;;;;3.00;1.10;;;20.80;99.90;;;;;;5002948;28;20034;-17
2023/10/19 11:02:21;;;;;;;2.83;1.00;;;20.90;99.90;;;;;;5005945;28;20587;-17
2023/10/19 11:04:47;;;;;;;3.17;1.05;;;21.00;99.90;;;;;;4981700;28;20033;-17
2023/10/19 11:07:21;;;;;;;4.00;0.90;;;22.10;99.90;;;;;;4992979;28;20033;-17
2023/10/19 11:09:47;;;;;;;3.95;0.82;;;21.10;99.90;;;;;;5009834;28;20036;-17
2023/10/19 11:12:16;;;;;;;2.85;1.00;;;21.10;99.90;;;;;;5012060;28;20443;-17
2023/10/19 11:14:55;;;;;;;3.35;0.90;;;21.10;99.90;;;;;;4968690;28;21134;-17
2023/10/19 11:17:28;;;;;;;2.80;0.90;;;21.10;99.90;;;;;;5009166;28;20018;-17
2023/10/19 11:19:56;;;;;;;1.50;0.80;;;21.10;99.90;;;;;;4983461;28;20043;-17
2023/10/19 11:22:26;;;;;;;2.20;0.90;;;21.10;99.90;;;;;;4989671;28;20398;-17
2023/10/19 11:24:56;;;;;;;2.40;0.73;;;21.10;99.90;;;;;;5005426;28;20582;-17
2023/10/19 11:27:28;;;;;;;3.15;1.00;;;21.00;99.90;;;;;;5011633;28;20162;-17
2023/10/19 11:30:06;;;;;;;2.08;0.90;;;20.90;99.90;;;;;;4996304;28;20037;-17
2023/10/19 11:32:39;;;;;;;2.80;0.70;;;20.80;99.90;;;;;;5010576;28;20045;-16
2023/10/19 11:35:07;;;;;;;1.77;0.82;;;20.80;99.90;;;;;;5010984;28;20104;-17
2023/10/19 11:38:05;;;;;;;2.60;0.80;;;20.70;99.90;;;;;;4963560;28;20395;-17
2023/10/19 11:40:31;;;;;;;1.85;0.80;;;20.60;99.90;;;;;;4964486;28;20037;-15
2023/10/19 11:42:56;;;;;;;1.83;1.00;;;20.60;99.90;;;;;;5006486;28;20041;-16
2023/10/19 11:45:25;;;;;;;1.98;0.75;;;20.50;99.90;;;;;;4993839;28;20083;-15
2023/10/19 11:47:52;;;;;;;3.58;1.00;;;20.40;99.90;;;;;;5010040;28;20010;-16
2023/10/19 11:50:19;;;;;;;3.10;0.85;;;20.30;99.90;;;;;;4992139;28;20029;-15
2023/10/19 11:52:45;;;;;;;3.03;0.88;;;20.30;99.90;;;;;;4964980;28;21492;-16
2023/10/19 11:55:13;;;;;;;2.30;0.90;;;20.20;99.90;;;;;;5006013;28;20044;-16
2023/10/19 11:57:40;;;;;;;3.15;0.75;;;20.20;99.90;;;;;;5005776;28;20228;-16
2023/10/19 12:00:09;;;;;;;3.45;1.17;;;20.20;99.90;;;;;;4993766;28;20121;-16
2023/10/19 12:02:38;;;;;;;2.33;0.90;;;20.20;99.90;;;;;;5007326;28;20280;-16
2023/10/19 12:05:12;;;;;;;3.30;0.80;;;20.20;99.90;;;;;;5008044;28;20029;-16
2023/10/19 12:07:38;;;;;;;2.50;1.10;;;20.20;99.90;;;;;;4964888;28;20033;-16
2023/10/19 12:10:08;;;;;;;2.25;0.80;;;20.20;99.90;;;;;;5007223;28;20017;-15
2023/10/19 12:12:34;;;;;;;2.35;1.00;;;20.20;99.90;;;;;;5002279;28;20025;-16
2023/10/19 12:15:00;;;;;;;3.60;1.00;;;20.20;99.90;;;;;;4993022;28;20034;-14
2023/10/19 12:17:30;;;;;;;1.90;0.83;;;20.20;99.90;;;;;;5018740;28;20052;-14
2023/10/19 12:19:56;;;;;;;3.28;0.80;;;20.20;99.90;;;;;;5008406;28;20399;-14
2023/10/19 12:22:22;;;;;;;2.17;0.90;;;20.20;99.90;;;;;;4984665;28;20082;-14
2023/10/19 12:24:48;;;;;;;3.67;1.20;;;20.20;99.90;;;;;;4987622;28;20021;-14
2023/10/19 12:27:14;;;;;;;2.45;0.90;;;20.20;99.90;;;;;;5006422;28;20029;-14
2023/10/19 12:29:40;;;;;;;2.13;1.00;;;20.20;99.90;;;;;;4993210;28;20581;-14
2023/10/19 12:32:06;;;;;;;2.65;0.90;;;20.20;99.90;;;;;;5005764;28;20033;-14
2023/10/19 12:34:32;;;;;;;3.03;1.00;;;20.20;99.90;;;;;;5004835;28;20211;-14
2023/10/19 12:36:59;;;;;;;2.30;0.80;;;20.20;99.90;;;;;;4991758;28;20421;-13
2023/10/19 12:39:45;;;;;;;3.05;1.10;;;20.10;99.90;;;;;;4966819;28;20560;-14
2023/10/19 12:42:11;;;;;;;1.98;0.90;;;20.10;99.90;;;;;;4996336;28;20030;-12
2023/10/19 12:44:39;;;;;;;1.38;0.90;;;20.10;99.90;;;;;;4988326;28;20091;-13
2023/10/19 12:47:16;;;;;;;1.40;0.80;;;20.10;99.90;;;;;;4996053;28;20041;-12
2023/10/19 12:49:44;;;;;;;2.55;0.80;;;20.00;99.90;;;;;;5016605;28;20238;-12
2023/10/19 12:52:10;;;;;;;3.47;0.80;;;20.00;99.90;;;;;;5009106;28;20030;-12
2023/10/19 12:54:37;;;;;;;1.15;0.90;;;19.90;99.90;;;;;;4962065;28;21223;-13
2023/10/19 12:57:09;;;;;;;2.20;0.90;;;19.90;99.90;;;;;;5006400;28;20053;-11
2023/10/19 12:59:37;;;;;;;1.33;0.80;;;19.90;99.90;;;;;;4988383;28;20684;-13
2023/10/19 13:02:04;;;;;;;1.67;0.77;;;19.90;99.90;;;;;;5020758;28;20054;-12
2023/10/19 13:04:31;;;;;;;1.13;0.70;;;19.90;99.90;;;;;;5017237;28;20022;-13
2023/10/19 13:06:57;;;;;;;1.40;0.68;;;19.90;99.90;;;;;;5004420;28;20022;-12
2023/10/19 13:09:32;;;;;;;1.52;0.80;;;20.00;99.90;;;;;;4976875;28;20117;-14
2023/10/19 13:11:59;;;;;;;1.30;0.80;;;20.10;99.90;;;;;;5006516;28;20029;-12
2023/10/19 13:14:26;;;;;;;2.40;0.90;;;20.20;99.90;;;;;;5006953;28;20428;-13
2023/10/19 13:16:52;;;;;;;2.08;0.90;;;20.30;99.90;;;;;;4994871;28;20439;-12
2023/10/19 13:19:23;;;;;;;1.65;0.85;;;20.50;99.90;;;;;;5006910;28;20053;-13
2023/10/19 13:21:49;;;;;;;1.77;0.90;;;20.70;99.90;;;;;;5018209;28;20029;-13
2023/10/19 13:24:16;;;;;;;1.60;0.80;;;20.90;99.90;;;;;;5003657;28;20368;-13
2023/10/19 13:26:45;;;;;;;1.55;0.80;;;21.20;99.90;;;;;;4954695;28;20328;-12
2023/10/19 13:29:11;;;;;;;2.05;1.15;;;21.60;99.90;;;;;;5021809;28;20021;-13